Time;durP1;ratioP1;P1;durP2;ratioP2;P2;SDS_P1;SDS_P2;PMS_P1;PMS_P2;Temp;Humidity;BMP_temperature;BMP_pressure;BME280_temperature;BME280_humidity;BME280_pressure;Samples;Min_cycle;Max_cycle;Signal;HPM_P1;HPM_P2
2024/01/23 00:02:08;;;;;;;14.20;8.80;;;;;;;-0.89;65.52;99349.10;108823;1263;59721;-27
2024/01/23 00:04:35;;;;;;;20.60;10.90;;;;;;;-1.05;66.09;99348.54;108835;1263;60016;-27
2024/01/23 00:07:03;;;;;;;14.50;10.20;;;;;;;-1.30;66.52;99348.38;108812;1261;73165;-26
2024/01/23 00:09:31;;;;;;;8.40;5.80;;;;;;;-1.38;66.97;99362.27;108901;1263;72930;-26
2024/01/23 00:12:00;;;;;;;16.50;9.30;;;;;;;-1.39;67.20;99358.86;109151;1257;71391;-26
2024/01/23 00:14:27;;;;;;;7.00;5.10;;;;;;;-1.54;67.80;99367.95;109077;1257;59687;-27
2024/01/23 00:16:55;;;;;;;11.60;8.00;;;;;;;-1.18;66.64;99355.20;109142;1257;59130;-26
2024/01/23 00:19:22;;;;;;;14.10;9.20;;;;;;;-0.94;65.72;99365.27;109068;1257;73054;-26
2024/01/23 00:21:50;;;;;;;14.80;9.80;;;;;;;-1.04;65.52;99366.91;109062;1256;74736;-26
2024/01/23 00:24:17;;;;;;;12.20;8.70;;;;;;;-1.08;65.96;99369.60;109068;1257;72717;-26
2024/01/23 00:26:45;;;;;;;11.10;7.60;;;;;;;-1.31;66.59;99377.05;109107;1262;59241;-26
2024/01/23 00:29:13;;;;;;;12.50;6.90;;;;;;;-1.41;67.18;99373.56;109134;1257;60003;-27
2024/01/23 00:31:40;;;;;;;12.70;7.50;;;;;;;-1.50;67.65;99375.67;109143;1257;73124;-26
2024/01/23 00:34:07;;;;;;;14.60;9.10;;;;;;;-1.40;67.22;99370.30;109122;1257;74339;-26
2024/01/23 00:36:35;;;;;;;15.70;9.30;;;;;;;-0.90;65.89;99356.80;109137;1257;72730;-26
2024/01/23 00:39:03;;;;;;;14.70;9.70;;;;;;;-0.85;65.03;99366.38;109019;1264;59245;-26
2024/01/23 00:41:31;;;;;;;10.90;6.90;;;;;;;-0.97;65.23;99359.06;109155;1257;58808;-27
2024/01/23 00:43:58;;;;;;;17.10;9.90;;;;;;;-1.10;65.86;99362.30;109108;1257;71756;-26
2024/01/23 00:46:26;;;;;;;18.70;12.00;;;;;;;-1.24;65.84;99357.77;109127;1257;74257;-26
2024/01/23 00:48:54;;;;;;;9.80;6.90;;;;;;;-1.45;67.10;99355.80;108998;1257;71409;-26
2024/01/23 00:51:21;;;;;;;13.20;8.30;;;;;;;-1.55;67.22;99347.21;109102;1257;58773;-26
2024/01/23 00:53:49;;;;;;;9.10;4.80;;;;;;;-1.64;67.74;99343.87;109116;1257;58768;-26
2024/01/23 00:56:17;;;;;;;12.00;6.40;;;;;;;-1.11;66.54;99343.94;109050;1257;72221;-26
2024/01/23 00:58:44;;;;;;;16.20;9.80;;;;;;;-0.87;65.40;99342.41;109122;1257;74880;-26
2024/01/23 01:01:12;;;;;;;9.10;5.70;;;;;;;-1.15;65.94;99331.27;108999;1257;70562;-26
2024/01/23 01:03:39;;;;;;;9.30;6.30;;;;;;;-1.11;65.81;99330.49;109145;1257;58838;-26
2024/01/23 01:06:07;;;;;;;17.60;9.80;;;;;;;-1.20;66.24;99336.70;109112;1257;59001;-26
2024/01/23 01:08:34;;;;;;;16.60;10.80;;;;;;;-1.42;66.86;99331.86;109054;1257;71853;-27
2024/01/23 01:11:02;;;;;;;15.50;10.20;;;;;;;-1.60;67.13;99331.34;109093;1257;72208;-26
2024/01/23 01:13:29;;;;;;;11.30;6.70;;;;;;;-1.70;67.98;99327.66;109004;1257;71764;-26
2024/01/23 01:15:57;;;;;;;15.90;9.60;;;;;;;-1.32;66.94;99328.34;108997;1261;59255;-26
2024/01/23 01:18:24;;;;;;;13.00;8.60;;;;;;;-0.96;65.48;99330.73;109139;1257;60038;-26
2024/01/23 01:20:52;;;;;;;15.30;8.70;;;;;;;-0.95;65.10;99324.55;109094;1257;72568;-26
2024/01/23 01:23:19;;;;;;;17.10;9.80;;;;;;;-1.10;65.38;99323.80;109026;1257;73157;-27
2024/01/23 01:25:47;;;;;;;17.50;11.00;;;;;;;-1.43;66.25;99310.60;109121;1257;72640;-26
2024/01/23 01:28:15;;;;;;;14.60;10.20;;;;;;;-1.64;67.19;99316.11;109084;1259;58811;-26
2024/01/23 01:30:43;;;;;;;12.60;8.20;;;;;;;-1.75;67.65;99310.27;109080;1258;59971;-26
2024/01/23 01:33:11;;;;;;;15.70;9.70;;;;;;;-1.75;67.42;99318.28;109052;1258;73767;-26
2024/01/23 01:35:39;;;;;;;15.90;6.40;;;;;;;-1.33;66.64;99314.91;109072;1260;74279;-27
2024/01/23 01:38:06;;;;;;;14.90;9.10;;;;;;;-0.79;64.96;99307.38;109081;1258;72782;-26
2024/01/23 01:40:34;;;;;;;10.20;6.40;;;;;;;-0.93;65.08;99302.53;109095;1259;59301;-26
2024/01/23 01:43:01;;;;;;;12.50;7.10;;;;;;;-0.94;64.91;99303.91;109007;1258;60065;-26
2024/01/23 01:45:29;;;;;;;10.20;6.50;;;;;;;-1.21;65.55;99301.30;109078;1260;73783;-26
2024/01/23 01:47:56;;;;;;;12.90;9.10;;;;;;;-1.36;66.02;99300.88;109062;1257;74302;-26
2024/01/23 01:50:24;;;;;;;9.20;6.70;;;;;;;-1.60;66.77;99305.27;109015;1259;72620;-27
2024/01/23 01:52:51;;;;;;;13.60;9.00;;;;;;;-1.70;67.37;99295.50;108951;1260;59241;-26
2024/01/23 01:55:19;;;;;;;11.10;6.10;;;;;;;-1.74;67.76;99299.33;109012;1260;58772;-26
2024/01/23 01:57:46;;;;;;;10.60;7.20;;;;;;;-1.37;66.78;99293.05;109122;1260;72139;-26
2024/01/23 02:00:14;;;;;;;7.10;4.90;;;;;;;-0.92;65.21;99291.39;109083;1257;74269;-26
2024/01/23 02:02:43;;;;;;;11.90;7.20;;;;;;;-0.92;64.50;99299.05;108997;1257;71825;-26
2024/01/23 02:05:10;;;;;;;12.20;7.00;;;;;;;-1.01;64.97;99297.80;108993;1259;59311;-26
2024/01/23 02:07:38;;;;;;;13.50;5.30;;;;;;;-1.26;65.37;99294.46;109101;1260;58741;-26
2024/01/23 02:10:06;;;;;;;10.60;5.20;;;;;;;-1.29;66.00;99298.78;109051;1257;72670;-26
2024/01/23 02:12:34;;;;;;;8.70;5.60;;;;;;;-1.38;66.08;99295.48;109081;1263;73289;-26
2024/01/23 02:15:01;;;;;;;7.80;4.90;;;;;;;-1.60;66.78;99290.63;109082;1259;72641;-26
2024/01/23 02:17:29;;;;;;;12.00;7.80;;;;;;;-1.61;66.91;99292.37;109069;1260;58879;-26
2024/01/23 02:19:56;;;;;;;22.50;11.40;;;;;;;-1.38;66.46;99289.68;109086;1259;59973;-26
2024/01/23 02:22:24;;;;;;;9.60;5.60;;;;;;;-1.07;65.22;99276.34;109109;1257;73111;-26
2024/01/23 02:24:51;;;;;;;11.50;6.80;;;;;;;-0.91;64.61;99276.02;109069;1257;74399;-26
2024/01/23 02:27:19;;;;;;;18.40;11.00;;;;;;;-1.08;64.78;99274.83;109086;1260;72638;-27
2024/01/23 02:29:46;;;;;;;9.50;6.00;;;;;;;-1.29;65.40;99273.41;109025;1260;58757;-26
2024/01/23 02:32:14;;;;;;;13.70;8.10;;;;;;;-1.51;66.20;99276.59;108994;1259;58854;-26
2024/01/23 02:34:44;;;;;;;16.00;8.50;;;;;;;-1.64;66.59;99272.53;109081;1260;73790;-26
2024/01/23 02:37:11;;;;;;;11.80;7.50;;;;;;;-1.74;67.08;99280.95;109102;1259;74340;-26
2024/01/23 02:39:39;;;;;;;9.90;6.20;;;;;;;-1.76;67.51;99274.19;109060;1258;71415;-26
2024/01/23 02:42:09;;;;;;;8.70;6.10;;;;;;;-1.31;66.38;99283.50;109033;1260;58863;-26
2024/01/23 02:44:37;;;;;;;10.80;7.90;;;;;;;-0.82;64.72;99289.23;109083;1259;60010;-26
2024/01/23 02:47:05;;;;;;;8.90;5.60;;;;;;;-0.97;64.62;99282.02;109052;1258;72665;-26
2024/01/23 02:49:32;;;;;;;11.10;7.60;;;;;;;-1.20;65.21;99282.02;109089;1259;74284;-26
2024/01/23 02:52:00;;;;;;;12.60;7.20;;;;;;;-1.40;65.84;99286.32;108998;1259;72753;-26
2024/01/23 02:54:28;;;;;;;8.50;5.40;;;;;;;-1.39;66.12;99282.71;108977;1260;58916;-26
2024/01/23 02:56:55;;;;;;;10.70;7.00;;;;;;;-1.48;66.35;99280.94;109096;1259;60074;-27
2024/01/23 02:59:23;;;;;;;14.40;6.90;;;;;;;-1.67;67.16;99275.84;108972;1261;73824;-26
2024/01/23 03:01:50;;;;;;;10.10;5.90;;;;;;;-1.63;67.11;99271.80;109085;1260;73311;-26
2024/01/23 03:04:18;;;;;;;8.10;5.60;;;;;;;-1.25;66.17;99264.59;108961;1261;71150;-26
2024/01/23 03:06:46;;;;;;;8.10;4.50;;;;;;;-0.93;64.89;99268.10;109083;1259;59262;-26
2024/01/23 03:09:14;;;;;;;9.50;6.30;;;;;;;-1.05;65.27;99272.02;109007;1260;58736;-26
2024/01/23 03:11:41;;;;;;;10.60;7.30;;;;;;;-1.07;65.08;99270.73;108959;1258;72820;-26
2024/01/23 03:14:10;;;;;;;11.90;6.90;;;;;;;-1.31;65.59;99261.02;109095;1260;74299;-26
2024/01/23 03:16:37;;;;;;;13.10;6.00;;;;;;;-1.47;65.98;99263.02;109070;1260;72553;-26
2024/01/23 03:19:05;;;;;;;9.50;5.70;;;;;;;-1.46;66.51;99258.39;109068;1261;59260;-26
2024/01/23 03:21:33;;;;;;;9.00;5.80;;;;;;;-1.52;66.80;99255.67;108985;1260;59999;-26
2024/01/23 03:24:00;;;;;;;15.50;9.30;;;;;;;-1.39;66.74;99246.79;108957;1260;73902;-26
2024/01/23 03:26:28;;;;;;;12.10;6.50;;;;;;;-0.86;64.67;99244.36;109061;1261;74305;-26
2024/01/23 03:28:55;;;;;;;8.80;5.70;;;;;;;-0.82;64.05;99241.82;109055;1260;72660;-26
2024/01/23 03:31:23;;;;;;;13.60;7.90;;;;;;;-0.78;63.84;99243.27;108891;1260;59234;-26
2024/01/23 03:33:50;;;;;;;6.00;4.40;;;;;;;-0.93;64.36;99243.89;108879;1260;59156;-26
2024/01/23 03:36:18;;;;;;;11.00;5.70;;;;;;;-1.01;64.99;99239.02;108925;1260;73816;-26
2024/01/23 03:38:46;;;;;;;6.70;5.10;;;;;;;-1.22;65.52;99237.10;108898;1260;72097;-27
2024/01/23 03:41:13;;;;;;;11.30;5.80;;;;;;;-1.30;65.95;99229.83;108894;1259;71383;-26
2024/01/23 03:43:45;;;;;;;10.10;7.00;;;;;;;-1.35;66.06;99227.92;108895;1260;58904;-26
2024/01/23 03:46:13;;;;;;;7.90;5.40;;;;;;;-1.49;66.28;99229.52;108999;1261;58916;-26
2024/01/23 03:48:40;;;;;;;11.60;7.90;;;;;;;-1.05;65.64;99229.23;108965;1260;73875;-26
2024/01/23 03:51:08;;;;;;;12.50;6.10;;;;;;;-0.87;64.67;99223.22;108883;1260;73211;-27
2024/01/23 03:53:35;;;;;;;9.90;7.70;;;;;;;-0.69;64.36;99224.23;108907;1261;72630;-26
2024/01/23 03:56:03;;;;;;;14.10;9.20;;;;;;;-0.95;65.00;99218.55;108950;1261;59270;-26
2024/01/23 03:58:31;;;;;;;11.40;6.50;;;;;;;-1.14;65.61;99224.58;108908;1266;60002;-27
2024/01/23 04:01:00;;;;;;;10.60;6.50;;;;;;;-1.14;65.31;99225.42;108909;1261;73884;-26
2024/01/23 04:03:28;;;;;;;12.30;7.70;;;;;;;-1.30;66.17;99217.57;108963;1260;73038;-26
2024/01/23 04:05:56;;;;;;;12.60;7.60;;;;;;;-1.40;66.33;99216.34;108960;1262;71480;-26
2024/01/23 04:08:24;;;;;;;10.90;7.50;;;;;;;-1.51;66.84;99220.56;108953;1261;59593;-26
2024/01/23 04:10:51;;;;;;;11.90;8.40;;;;;;;-0.95;65.39;99225.03;108901;1260;59989;-26
2024/01/23 04:13:19;;;;;;;8.00;4.90;;;;;;;-0.59;64.57;99223.88;108903;1260;73822;-27
2024/01/23 04:15:46;;;;;;;8.60;6.30;;;;;;;-0.60;63.99;99223.08;109056;1260;73360;-26
2024/01/23 04:18:14;;;;;;;10.30;6.10;;;;;;;-0.74;64.03;99221.98;108963;1265;71446;-27
2024/01/23 04:20:42;;;;;;;8.80;5.60;;;;;;;-1.04;65.28;99218.63;108891;1261;59240;-26
2024/01/23 04:23:09;;;;;;;10.60;6.90;;;;;;;-1.22;65.71;99219.21;108969;1260;60034;-26
2024/01/23 04:25:37;;;;;;;12.70;8.40;;;;;;;-1.28;66.29;99220.77;108971;1260;73827;-26
2024/01/23 04:28:06;;;;;;;18.30;8.90;;;;;;;-1.40;66.54;99213.27;108970;1260;74305;-26
2024/01/23 04:30:36;;;;;;;10.60;6.40;;;;;;;-1.43;67.15;99211.81;108793;1261;72650;-26
2024/01/23 04:33:07;;;;;;;10.90;6.30;;;;;;;-0.91;66.40;99211.76;108776;1260;59141;-26
2024/01/23 04:35:38;;;;;;;17.00;7.00;;;;;;;-0.59;65.43;99212.12;108930;1260;60113;-26
2024/01/23 04:38:09;;;;;;;13.60;9.20;;;;;;;-0.68;65.82;99204.91;108881;1260;74154;-26
2024/01/23 04:40:38;;;;;;;9.30;6.50;;;;;;;-1.04;66.94;99201.44;108808;1260;74334;-26
2024/01/23 04:43:10;;;;;;;14.80;9.80;;;;;;;-1.28;67.86;99204.72;108788;1260;72651;-27
2024/01/23 04:45:41;;;;;;;13.30;7.40;;;;;;;-1.36;68.43;99207.88;108819;1260;59318;-26
2024/01/23 04:48:11;;;;;;;11.20;6.10;;;;;;;-1.60;69.32;99201.58;108803;1260;60039;-26
2024/01/23 04:50:40;;;;;;;11.60;7.80;;;;;;;-1.43;69.79;99204.15;108853;1260;72566;-26
2024/01/23 04:53:11;;;;;;;10.00;6.10;;;;;;;-0.93;68.70;99204.35;108886;1260;74448;-26
2024/01/23 04:55:40;;;;;;;13.10;8.40;;;;;;;-0.83;68.73;99204.19;108716;1260;72928;-27
2024/01/23 04:58:10;;;;;;;11.00;7.30;;;;;;;-1.03;69.65;99197.34;108784;1263;58946;-26
2024/01/23 05:00:40;;;;;;;9.00;6.20;;;;;;;-1.20;70.39;99204.84;108795;1260;60061;-26
2024/01/23 05:03:13;;;;;;;9.10;5.30;;;;;;;-1.26;70.89;99209.26;108884;1260;73943;-26
2024/01/23 05:05:43;;;;;;;5.30;4.00;;;;;;;-1.40;71.81;99214.11;108873;1260;74335;-26
2024/01/23 05:08:15;;;;;;;9.60;6.60;;;;;;;-1.18;71.76;99211.08;108777;1260;72677;-27
2024/01/23 05:10:46;;;;;;;8.20;5.70;;;;;;;-0.87;71.10;99213.19;108911;1260;59223;-26
2024/01/23 05:13:16;;;;;;;7.30;4.90;;;;;;;-0.74;70.72;99208.16;108807;1260;58841;-26
2024/01/23 05:15:46;;;;;;;15.10;7.70;;;;;;;-0.84;70.67;99209.50;108835;1260;73883;-26
2024/01/23 05:18:16;;;;;;;9.00;5.20;;;;;;;-1.00;71.26;99209.35;108919;1260;72080;-26
2024/01/23 05:20:47;;;;;;;8.60;5.00;;;;;;;-1.14;71.95;99204.48;108775;1260;72712;-26
2024/01/23 05:23:17;;;;;;;11.40;6.50;;;;;;;-1.43;72.90;99198.01;108807;1267;59290;-26
2024/01/23 05:25:47;;;;;;;6.60;4.80;;;;;;;-1.13;73.23;99202.92;108770;1260;60021;-26
2024/01/23 05:34:41;;;;;;;8.60;5.00;;;;;;;-0.69;71.12;99205.42;102755;1290;599429;-26
2024/01/23 05:37:10;;;;;;;8.50;5.40;;;;;;;-0.88;71.42;99211.16;105050;1269;61168;-27
2024/01/23 05:39:38;;;;;;;11.80;7.20;;;;;;;-1.16;72.22;99207.24;104842;1271;61266;-27
2024/01/23 05:42:06;;;;;;;4.00;3.20;;;;;;;-1.31;73.15;99205.66;104854;1266;72254;-28
2024/01/23 05:44:34;;;;;;;9.60;5.20;;;;;;;-0.76;72.11;99203.31;105110;1269;73174;-27
2024/01/23 05:47:02;;;;;;;12.90;4.60;;;;;;;-0.56;70.50;99198.72;105061;1266;70395;-28
2024/01/23 05:49:31;;;;;;;9.30;4.50;;;;;;;-0.81;71.23;99201.41;105036;1263;209194;-28
2024/01/23 05:59:41;;;;;;;9.90;7.10;;;;;;;-0.92;72.82;99199.02;103726;1284;599325;-26
2024/01/23 06:02:08;;;;;;;9.70;6.60;;;;;;;-0.74;71.37;99200.68;104904;1271;61158;-27
2024/01/23 06:04:36;;;;;;;6.50;4.30;;;;;;;-0.65;70.78;99201.23;104969;1270;61201;-26
2024/01/23 06:07:06;;;;;;;7.80;5.30;;;;;;;-0.77;71.16;99203.34;104861;1270;71182;-27
2024/01/23 06:09:33;;;;;;;14.10;8.10;;;;;;;-1.12;72.03;99195.39;104979;1264;73138;-26
2024/01/23 06:19:42;;;;;;;10.30;6.50;;;;;;;-0.74;71.38;99201.86;102699;1290;599058;-27
2024/01/23 06:22:10;;;;;;;14.90;7.00;;;;;;;-0.88;71.78;99204.02;104950;1263;61125;-28
2024/01/23 06:25:01;;;;;;;10.10;5.90;;;;;;;-1.18;72.82;99201.38;104923;1263;61206;-28
2024/01/23 06:27:29;;;;;;;6.60;4.70;;;;;;;-1.34;73.86;99203.40;104737;1274;72247;-28
2024/01/23 06:29:56;;;;;;;9.90;6.90;;;;;;;-1.11;73.64;99202.84;104999;1269;72225;-28
2024/01/23 06:32:25;;;;;;;10.40;6.10;;;;;;;-0.62;71.88;99209.48;104405;1266;458883;-28
2024/01/23 06:42:39;;;;;;;15.10;7.20;;;;;;;-1.20;74.08;99220.16;102784;1293;600257;-27
2024/01/23 06:45:07;;;;;;;13.50;6.80;;;;;;;-1.20;74.87;99220.84;104933;1265;61166;-27
2024/01/23 06:55:11;;;;;;;12.50;7.90;;;;;;;-1.03;74.06;99226.13;102722;1292;599950;-27
2024/01/23 06:57:39;;;;;;;8.40;4.50;;;;;;;-1.26;74.64;99229.38;104828;1267;61295;-28
2024/01/23 07:00:08;;;;;;;14.00;8.10;;;;;;;-0.89;74.16;99235.42;104799;1265;62093;-27
2024/01/23 07:02:36;;;;;;;11.90;7.90;;;;;;;-0.80;73.71;99232.90;104826;1266;70940;-27
2024/01/23 07:05:05;;;;;;;12.20;6.80;;;;;;;-0.81;73.29;99236.52;104881;1264;73175;-27
2024/01/23 07:07:34;;;;;;;14.00;8.40;;;;;;;-0.87;73.58;99237.90;104810;1264;71404;-27
2024/01/23 07:10:01;;;;;;;11.70;7.20;;;;;;;-1.21;74.69;99240.80;104876;1269;204033;-27
2024/01/23 07:12:29;;;;;;;14.90;10.20;;;;;;;-1.12;74.89;99245.32;105139;1262;61172;-27
2024/01/23 07:14:57;;;;;;;10.70;6.60;;;;;;;-0.81;73.87;99245.38;105163;1267;71231;-27
2024/01/23 07:17:25;;;;;;;13.40;7.70;;;;;;;-0.51;72.59;99253.48;105577;1254;74415;-27
2024/01/23 07:19:54;;;;;;;12.90;6.40;;;;;;;-0.75;73.00;99252.72;105984;1251;71327;-28
2024/01/23 07:22:22;;;;;;;19.20;9.90;;;;;;;-0.99;73.98;99254.65;105991;1251;61058;-27
2024/01/23 07:24:51;;;;;;;19.70;10.70;;;;;;;-1.23;74.88;99255.16;106029;1250;61236;-27
2024/01/23 07:34:59;;;;;;;8.90;6.00;;;;;;;-0.96;74.19;99258.79;103319;1289;599192;-27
2024/01/23 07:37:27;;;;;;;13.20;8.50;;;;;;;-1.12;75.03;99260.66;104884;1267;61165;-27
2024/01/23 07:39:55;;;;;;;10.30;6.90;;;;;;;-1.01;75.66;99264.76;104798;1269;61187;-27
2024/01/23 07:42:22;;;;;;;12.90;7.70;;;;;;;-0.73;74.72;99263.04;104834;1267;72268;-28
2024/01/23 07:44:50;;;;;;;17.40;10.30;;;;;;;-0.59;73.98;99261.41;104838;1267;74291;-27
2024/01/23 07:47:17;;;;;;;10.00;6.40;;;;;;;-0.85;74.63;99260.00;104838;1269;70946;-27
2024/01/23 07:49:45;;;;;;;11.30;6.30;;;;;;;-0.99;75.51;99274.58;104937;1267;215159;-27
2024/01/23 07:52:22;;;;;;;16.10;8.30;;;;;;;-0.87;75.61;99273.52;105202;1263;61150;-27
2024/01/23 07:54:50;;;;;;;14.40;8.70;;;;;;;-0.67;74.67;99279.39;105196;1264;71410;-28
2024/01/23 07:57:18;;;;;;;11.20;6.30;;;;;;;-0.69;74.86;99276.04;104868;1269;72338;-27
2024/01/23 07:59:45;;;;;;;12.60;7.90;;;;;;;-0.78;74.96;99283.12;105184;1264;72656;-27
2024/01/23 08:02:13;;;;;;;8.80;4.90;;;;;;;-1.09;76.35;99281.17;105154;1263;61173;-27
2024/01/23 08:12:17;;;;;;;14.80;9.70;;;;;;;-0.69;75.34;99291.74;102791;1293;599467;-27
2024/01/23 08:14:45;;;;;;;11.70;6.70;;;;;;;-0.93;76.18;99293.66;105064;1266;61185;-27
2024/01/23 08:17:12;;;;;;;8.80;6.30;;;;;;;-0.91;76.80;99290.35;105015;1264;62692;-27
2024/01/23 08:27:17;;;;;;;5.10;3.70;;;;;;;-0.80;76.49;99287.81;102806;1294;599943;-27
2024/01/23 08:29:45;;;;;;;9.70;5.00;;;;;;;-0.85;77.32;99294.29;104823;1267;63026;-27
2024/01/23 08:39:48;;;;;;;11.60;6.60;;;;;;;-0.44;75.54;99300.33;102632;1295;600076;-26
2024/01/23 08:42:16;;;;;;;5.60;4.20;;;;;;;-0.64;75.88;99296.00;104771;1270;61596;-27
2024/01/23 08:44:46;;;;;;;7.50;4.50;;;;;;;-0.58;76.17;99306.55;104893;1267;61241;-27
2024/01/23 08:47:14;;;;;;;8.10;4.70;;;;;;;-0.28;75.15;99304.95;104807;1268;71014;-27
2024/01/23 08:49:41;;;;;;;13.50;7.80;;;;;;;-0.14;74.12;99304.29;104818;1270;74275;-27
2024/01/23 08:52:09;;;;;;;9.00;6.50;;;;;;;-0.20;73.65;99305.02;104847;1272;72855;-27
2024/01/23 09:02:14;;;;;;;14.90;9.60;;;;;;;-0.08;74.64;99294.40;102926;1290;599824;-27
2024/01/23 09:04:42;;;;;;;8.00;5.10;;;;;;;-0.26;74.58;99288.33;104861;1269;61237;-27
2024/01/23 09:07:10;;;;;;;6.70;4.10;;;;;;;-0.41;75.15;99287.95;105035;1269;61170;-27
2024/01/23 09:09:38;;;;;;;9.40;6.50;;;;;;;-0.61;76.38;99288.77;105096;1267;74492;-27
2024/01/23 09:12:06;;;;;;;9.10;6.90;;;;;;;-0.61;76.38;99288.77;105028;1267;74284;-27
2024/01/23 09:14:34;;;;;;;7.60;4.70;;;;;;;-0.21;74.86;99285.92;105080;1269;73016;-26
2024/01/23 09:17:02;;;;;;;7.40;4.20;;;;;;;0.03;73.90;99289.40;105709;1256;225367;-26
2024/01/23 09:19:30;;;;;;;5.90;3.60;;;;;;;0.06;73.84;99289.30;105986;1251;61119;-26
2024/01/23 09:21:58;;;;;;;7.80;5.90;;;;;;;-0.29;74.78;99289.13;105918;1254;72119;-26
2024/01/23 09:24:26;;;;;;;9.20;6.50;;;;;;;-0.31;75.45;99287.80;105628;1251;75122;-26
2024/01/23 09:34:36;;;;;;;9.10;6.40;;;;;;;0.15;73.68;99283.69;102717;1292;599310;-26
2024/01/23 09:37:04;;;;;;;11.60;5.80;;;;;;;0.00;74.31;99283.69;104872;1270;61195;-26
2024/01/23 09:39:32;;;;;;;9.80;6.60;;;;;;;-0.24;75.46;99286.52;104961;1267;61247;-26
2024/01/23 09:42:01;;;;;;;8.50;5.70;;;;;;;0.11;75.00;99288.43;104825;1271;72111;-26
2024/01/23 09:44:29;;;;;;;8.40;4.60;;;;;;;0.89;72.14;99286.86;104868;1272;75849;-25
2024/01/23 09:46:57;;;;;;;9.10;5.20;;;;;;;1.12;70.93;99284.12;105268;1261;72990;-25
2024/01/23 09:49:26;;;;;;;9.60;5.90;;;;;;;0.93;70.84;99282.95;105422;1256;178521;-26
2024/01/23 09:51:54;;;;;;;9.80;6.00;;;;;;;0.62;71.93;99282.36;105681;1260;61144;-26
2024/01/23 09:54:23;;;;;;;7.50;4.70;;;;;;;0.22;73.33;99272.01;105487;1254;72569;-25
2024/01/23 09:56:51;;;;;;;6.30;5.00;;;;;;;0.41;73.39;99272.20;105589;1254;73018;-25
2024/01/23 09:59:20;;;;;;;6.60;4.60;;;;;;;0.83;72.02;99276.14;105330;1257;73843;-26
2024/01/23 10:01:47;;;;;;;7.90;4.90;;;;;;;0.93;71.61;99280.89;105471;1260;61232;-25
2024/01/23 10:04:17;;;;;;;10.10;5.50;;;;;;;0.82;71.82;99281.30;105594;1260;61232;-26
2024/01/23 10:06:45;;;;;;;9.50;5.50;;;;;;;0.60;72.48;99282.63;105655;1254;73291;-25
2024/01/23 10:09:13;;;;;;;11.80;6.60;;;;;;;0.28;74.15;99286.50;105614;1254;75397;-25
2024/01/23 10:11:41;;;;;;;5.90;4.00;;;;;;;0.22;74.38;99282.77;105523;1259;74643;-26
2024/01/23 10:14:09;;;;;;;8.40;5.40;;;;;;;0.14;75.63;99285.64;105507;1260;61222;-26
2024/01/23 10:16:40;;;;;;;6.60;4.80;;;;;;;0.70;73.73;99287.91;105576;1255;61739;-26
2024/01/23 10:19:10;;;;;;;6.50;4.90;;;;;;;0.71;73.09;99287.69;105616;1260;74129;-26
2024/01/23 10:21:38;;;;;;;10.70;5.80;;;;;;;0.70;72.97;99285.15;105326;1264;75592;-26
2024/01/23 10:24:07;;;;;;;10.00;5.80;;;;;;;0.59;73.24;99289.66;105385;1254;74420;-26
2024/01/23 10:26:35;;;;;;;8.90;5.80;;;;;;;0.42;74.11;99286.36;105604;1262;61190;-26
2024/01/23 10:29:04;;;;;;;6.30;5.20;;;;;;;0.68;74.06;99287.46;105521;1261;61357;-26
2024/01/23 10:31:36;;;;;;;7.00;5.00;;;;;;;1.22;71.96;99288.34;105495;1257;74780;-26
2024/01/23 10:34:05;;;;;;;10.70;8.30;;;;;;;1.37;71.02;99288.79;105106;1264;74832;-26
2024/01/23 10:36:33;;;;;;;8.50;4.90;;;;;;;1.27;70.92;99283.20;105135;1257;71671;-26
2024/01/23 10:39:00;;;;;;;9.80;6.50;;;;;;;0.91;72.25;99284.89;105485;1257;61116;-26
2024/01/23 10:41:29;;;;;;;8.70;5.90;;;;;;;0.62;73.26;99285.27;105263;1257;61144;-26
2024/01/23 10:43:57;;;;;;;10.20;5.80;;;;;;;0.52;73.84;99287.17;105503;1263;75201;-26
2024/01/23 10:46:24;;;;;;;6.80;4.60;;;;;;;0.71;74.20;99286.65;105374;1264;77180;-26
2024/01/23 10:48:52;;;;;;;10.20;7.20;;;;;;;1.36;71.83;99286.58;105116;1267;74119;-26
2024/01/23 10:51:20;;;;;;;7.50;5.20;;;;;;;1.18;71.62;99284.20;105201;1260;62193;-26
2024/01/23 10:54:01;;;;;;;9.10;4.50;;;;;;;1.21;72.09;99286.14;105294;1262;61073;-25
2024/01/23 10:56:38;;;;;;;9.30;5.30;;;;;;;1.19;71.62;99289.98;105444;1258;71742;-25
2024/01/23 10:59:13;;;;;;;8.10;5.50;;;;;;;0.68;73.12;99292.90;105322;1257;74344;-25
2024/01/23 11:01:48;;;;;;;10.70;7.10;;;;;;;0.64;74.05;99287.60;105258;1263;71554;-25
2024/01/23 11:04:16;;;;;;;8.60;4.80;;;;;;;0.91;73.08;99285.90;105252;1266;61286;-26
2024/01/23 11:06:52;;;;;;;6.70;3.80;;;;;;;1.10;72.89;99287.93;105393;1258;61096;-26
2024/01/23 11:09:23;;;;;;;12.50;6.20;;;;;;;1.13;71.95;99279.26;105276;1263;75304;-26
2024/01/23 11:12:40;;;;;;;10.10;6.30;;;;;;;1.04;72.61;99280.64;105291;1264;75176;-26
2024/01/23 11:15:14;;;;;;;7.30;4.60;;;;;;;0.91;73.22;99278.42;105454;1261;72636;-25
2024/01/23 11:17:41;;;;;;;9.20;5.90;;;;;;;1.12;73.25;99285.47;105301;1261;61126;-25
2024/01/23 11:20:13;;;;;;;7.70;5.40;;;;;;;1.74;71.00;99279.23;105421;1264;62340;-25
2024/01/23 11:22:41;;;;;;;9.90;5.90;;;;;;;2.01;69.55;99278.47;105253;1264;74784;-25
2024/01/23 11:25:12;;;;;;;10.70;7.00;;;;;;;1.69;70.61;99283.90;105428;1260;74259;-25
2024/01/23 11:27:40;;;;;;;11.20;6.10;;;;;;;1.52;71.30;99287.52;105148;1260;72781;-25
2024/01/23 11:30:10;;;;;;;7.60;5.50;;;;;;;1.29;71.88;99289.09;105120;1267;61177;-25
2024/01/23 11:32:38;;;;;;;10.00;6.30;;;;;;;1.02;72.97;99288.05;105123;1257;61130;-26
2024/01/23 11:35:11;;;;;;;9.50;5.90;;;;;;;1.08;73.60;99283.21;105518;1258;72928;-26
2024/01/23 11:37:53;;;;;;;8.50;5.90;;;;;;;1.40;72.85;99274.30;105159;1261;73456;-26
2024/01/23 11:40:34;;;;;;;9.90;6.00;;;;;;;1.55;72.18;99269.91;105360;1262;72547;-26
2024/01/23 11:43:06;;;;;;;9.60;6.40;;;;;;;1.54;72.22;99276.64;105273;1258;61166;-26
2024/01/23 11:45:36;;;;;;;13.70;7.10;;;;;;;1.35;72.98;99282.89;105259;1258;61130;-26
2024/01/23 11:48:05;;;;;;;8.00;5.70;;;;;;;1.07;73.57;99282.08;105230;1263;73660;-25
2024/01/23 11:50:34;;;;;;;11.60;5.00;;;;;;;1.12;74.42;99279.14;105262;1264;74194;-25
2024/01/23 11:53:02;;;;;;;9.50;6.00;;;;;;;1.36;74.01;99282.80;105294;1261;75001;-26
2024/01/23 11:55:34;;;;;;;15.90;6.10;;;;;;;1.56;73.14;99282.54;105543;1256;62089;-25
2024/01/23 11:58:02;;;;;;;11.30;6.90;;;;;;;1.42;73.79;99283.09;105525;1262;61173;-26
2024/01/23 12:00:30;;;;;;;11.50;7.50;;;;;;;1.32;73.80;99285.72;105540;1264;72751;-25
2024/01/23 12:02:58;;;;;;;7.00;4.90;;;;;;;1.17;74.45;99285.98;105494;1262;73418;-26
2024/01/23 12:05:26;;;;;;;12.90;7.40;;;;;;;0.90;75.63;99288.52;105545;1260;74699;-25
2024/01/23 12:07:54;;;;;;;12.20;6.50;;;;;;;1.05;75.75;99285.38;105182;1262;62840;-26
2024/01/23 12:10:21;;;;;;;7.20;4.60;;;;;;;1.46;73.89;99284.48;105228;1257;61434;-26
2024/01/23 12:12:55;;;;;;;11.00;6.10;;;;;;;1.69;72.96;99284.08;105469;1257;73015;-26
2024/01/23 12:15:23;;;;;;;7.60;5.10;;;;;;;1.63;72.96;99275.59;105472;1262;76796;-26
2024/01/23 12:17:51;;;;;;;12.50;7.50;;;;;;;1.22;74.16;99273.77;105459;1262;72823;-26
2024/01/23 12:20:19;;;;;;;12.90;7.00;;;;;;;1.18;74.53;99277.71;105478;1263;61296;-25
2024/01/23 12:22:47;;;;;;;13.20;8.00;;;;;;;1.03;75.42;99281.86;105456;1258;61094;-25
2024/01/23 12:25:15;;;;;;;9.70;6.50;;;;;;;1.17;75.39;99278.44;105306;1257;74219;-25
2024/01/23 12:27:43;;;;;;;12.30;6.90;;;;;;;1.62;73.66;99280.27;105522;1258;76671;-27
2024/01/23 12:30:15;;;;;;;10.60;7.20;;;;;;;1.99;72.41;99290.02;105267;1260;74699;-26
2024/01/23 12:32:49;;;;;;;13.00;8.10;;;;;;;1.99;71.77;99282.67;105285;1257;61254;-26
2024/01/23 12:35:17;;;;;;;12.00;6.10;;;;;;;1.84;72.05;99283.95;105289;1264;61141;-26
2024/01/23 12:37:45;;;;;;;10.80;6.50;;;;;;;1.51;73.14;99280.52;105558;1258;75108;-26
2024/01/23 12:42:18;;;;;;;12.90;7.90;;;;;;;1.19;74.47;99276.47;102741;1290;599798;-27
2024/01/23 12:44:46;;;;;;;10.20;6.10;;;;;;;1.41;74.17;99279.40;105023;1269;62156;-26
2024/01/23 12:47:14;;;;;;;10.80;6.90;;;;;;;1.92;72.51;99284.68;104881;1264;61126;-26
2024/01/23 12:49:46;;;;;;;11.70;7.80;;;;;;;2.00;72.08;99286.05;105547;1263;74432;-26
2024/01/23 12:52:15;;;;;;;13.10;6.90;;;;;;;1.96;71.64;99294.77;105340;1263;74806;-26
2024/01/23 12:54:42;;;;;;;9.40;6.30;;;;;;;1.67;72.68;99295.11;105315;1264;74779;-26